Time;durP1;ratioP1;P1;durP2;ratioP2;P2;SDS_P1;SDS_P2;PMS_P1;PMS_P2;Temp;Humidity;BMP_temperature;BMP_pressure;BME280_temperature;BME280_humidity;BME280_pressure;Samples;Min_cycle;Max_cycle;Signal;HPM_P1;HPM_P2
2023/08/19 00:00:24;;;;;;;6.43;5.05;;;;;;;;;;5053724;28;20173;-50
2023/08/19 00:02:50;;;;;;;8.07;4.80;;;;;;;;;;5054306;28;20169;-48
2023/08/19 00:05:17;;;;;;;6.00;5.32;;;;;;;;;;5052932;28;20169;-49
2023/08/19 00:07:43;;;;;;;8.03;5.43;;;;;;;;;;5052750;28;20189;-49
2023/08/19 00:10:09;;;;;;;5.70;5.10;;;;;;;;;;5051367;28;20178;-46
2023/08/19 00:12:35;;;;;;;6.28;4.70;;;;;;;;;;5051168;28;20378;-51
2023/08/19 00:15:01;;;;;;;6.30;4.80;;;;;;;;;;5050167;28;20184;-48
2023/08/19 00:17:27;;;;;;;8.90;5.90;;;;;;;;;;5050950;28;20166;-49
2023/08/19 00:19:53;;;;;;;6.95;5.60;;;;;;;;;;5051741;28;20172;-49
2023/08/19 00:22:19;;;;;;;7.38;4.63;;;;;;;;;;5052050;28;20173;-49
2023/08/19 00:24:45;;;;;;;9.27;5.68;;;;;;;;;;5051851;28;20170;-47
2023/08/19 00:27:12;;;;;;;6.97;5.28;;;;;;;;;;5052695;28;20209;-52
2023/08/19 00:29:38;;;;;;;7.07;5.13;;;;;;;;;;5051836;28;20225;-53
2023/08/19 00:32:05;;;;;;;6.77;5.60;;;;;;;;;;5051913;28;20209;-49
2023/08/19 00:34:31;;;;;;;9.67;5.80;;;;;;;;;;5052601;28;20231;-51
2023/08/19 00:36:57;;;;;;;6.75;5.78;;;;;;;;;;5053451;28;20177;-53
2023/08/19 00:39:23;;;;;;;8.13;5.83;;;;;;;;;;5052619;28;20173;-53
2023/08/19 00:41:50;;;;;;;8.57;5.60;;;;;;;;;;5052340;28;20211;-47
2023/08/19 00:44:16;;;;;;;6.20;5.60;;;;;;;;;;5053074;28;20173;-52
2023/08/19 00:46:42;;;;;;;7.30;5.33;;;;;;;;;;5052885;28;20310;-54
2023/08/19 00:49:08;;;;;;;7.10;5.47;;;;;;;;;;5054628;28;20169;-49
2023/08/19 00:51:38;;;;;;;7.57;5.45;;;;;;;;;;5054184;28;20247;-53
2023/08/19 00:54:04;;;;;;;5.90;5.30;;;;;;;;;;5054519;28;20181;-48
2023/08/19 00:56:30;;;;;;;5.30;4.80;;;;;;;;;;5055152;28;20173;-47
2023/08/19 00:58:56;;;;;;;7.43;5.77;;;;;;;;;;5054893;28;20177;-47
2023/08/19 01:01:22;;;;;;;6.50;5.27;;;;;;;;;;5053745;28;20204;-48
2023/08/19 01:03:48;;;;;;;6.57;5.83;;;;;;;;;;5053349;28;20175;-47
2023/08/19 01:06:34;;;;;;;6.23;5.10;;;;;;;;;;5053634;28;20169;-49
2023/08/19 01:09:18;;;;;;;8.57;5.63;;;;;;;;;;5053548;28;20192;-47
2023/08/19 01:11:55;;;;;;;9.57;5.57;;;;;;;;;;5052857;28;20173;-49
2023/08/19 01:14:24;;;;;;;8.63;5.57;;;;;;;;;;5051853;28;20184;-47
2023/08/19 01:16:52;;;;;;;7.03;5.28;;;;;;;;;;5051550;28;20268;-47
2023/08/19 01:19:29;;;;;;;7.22;5.75;;;;;;;;;;5052103;28;20169;-49
2023/08/19 01:21:58;;;;;;;7.30;6.53;;;;;;;;;;5050414;28;20469;-49
2023/08/19 01:24:26;;;;;;;8.73;5.40;;;;;;;;;;5048799;28;20179;-46
2023/08/19 01:26:52;;;;;;;8.03;5.60;;;;;;;;;;5050399;28;20784;-49
2023/08/19 01:29:18;;;;;;;6.63;5.77;;;;;;;;;;5049152;28;20321;-49
2023/08/19 01:31:45;;;;;;;12.70;6.30;;;;;;;;;;5048455;28;20268;-47
2023/08/19 01:34:11;;;;;;;7.57;6.30;;;;;;;;;;5048735;28;20161;-47
2023/08/19 01:36:42;;;;;;;9.03;6.07;;;;;;;;;;5050697;28;20169;-48
2023/08/19 01:39:09;;;;;;;8.00;6.13;;;;;;;;;;5049045;28;20557;-50
2023/08/19 01:41:36;;;;;;;6.80;6.07;;;;;;;;;;5048536;28;20178;-51
2023/08/19 01:44:03;;;;;;;7.10;5.13;;;;;;;;;;5049918;28;20169;-49
2023/08/19 01:46:29;;;;;;;9.07;5.70;;;;;;;;;;5048595;28;20439;-46
2023/08/19 01:48:56;;;;;;;10.90;6.67;;;;;;;;;;5047682;28;20175;-49
2023/08/19 01:51:21;;;;;;;7.13;6.50;;;;;;;;;;5047874;28;20173;-47
2023/08/19 01:53:50;;;;;;;6.47;5.57;;;;;;;;;;5046757;28;20180;-48
2023/08/19 01:56:17;;;;;;;9.23;5.70;;;;;;;;;;5047475;28;20569;-47
2023/08/19 01:58:43;;;;;;;10.30;6.53;;;;;;;;;;5046580;28;20187;-47
2023/08/19 02:01:12;;;;;;;7.40;6.70;;;;;;;;;;5044884;28;20297;-48
2023/08/19 02:03:38;;;;;;;6.10;5.50;;;;;;;;;;5046280;28;20189;-47
2023/08/19 02:06:04;;;;;;;7.00;6.23;;;;;;;;;;5045627;28;20440;-47
2023/08/19 02:08:30;;;;;;;7.17;6.23;;;;;;;;;;5047243;28;20206;-46
2023/08/19 02:10:56;;;;;;;6.73;6.13;;;;;;;;;;5046263;28;20184;-53
2023/08/19 02:13:22;;;;;;;12.07;6.57;;;;;;;;;;5047280;28;20585;-47
2023/08/19 02:15:48;;;;;;;8.80;6.10;;;;;;;;;;5048012;28;20514;-47
2023/08/19 02:18:14;;;;;;;9.40;6.17;;;;;;;;;;5048820;28;20261;-47
2023/08/19 02:20:41;;;;;;;7.80;5.97;;;;;;;;;;5047986;28;20184;-49
2023/08/19 02:23:07;;;;;;;10.23;6.60;;;;;;;;;;5048882;28;20620;-53
2023/08/19 02:25:33;;;;;;;8.57;6.83;;;;;;;;;;5050206;28;20522;-52
2023/08/19 02:27:59;;;;;;;8.73;6.43;;;;;;;;;;5047918;28;20408;-49
2023/08/19 02:30:25;;;;;;;7.13;6.43;;;;;;;;;;5047156;28;20384;-49
2023/08/19 02:32:51;;;;;;;7.40;5.87;;;;;;;;;;5049962;28;20170;-50
2023/08/19 02:35:18;;;;;;;6.83;6.10;;;;;;;;;;5050390;28;20173;-48
2023/08/19 02:37:44;;;;;;;8.20;6.93;;;;;;;;;;5050612;28;20173;-52
2023/08/19 02:40:10;;;;;;;7.00;6.30;;;;;;;;;;5052484;28;20266;-47
2023/08/19 02:42:37;;;;;;;7.70;6.40;;;;;;;;;;5050730;28;20258;-47
2023/08/19 02:45:03;;;;;;;8.27;6.43;;;;;;;;;;5052259;28;20264;-53
2023/08/19 02:47:29;;;;;;;10.03;6.17;;;;;;;;;;5052891;28;20208;-50
2023/08/19 02:49:55;;;;;;;10.47;6.30;;;;;;;;;;5054172;28;20169;-52
2023/08/19 02:52:20;;;;;;;7.10;6.40;;;;;;;;;;5054345;28;20170;-49
2023/08/19 02:54:47;;;;;;;10.50;6.93;;;;;;;;;;5053424;28;20181;-49
2023/08/19 02:57:13;;;;;;;10.03;7.13;;;;;;;;;;5053960;28;20181;-48
2023/08/19 02:59:39;;;;;;;7.40;6.60;;;;;;;;;;5053938;28;20288;-48
2023/08/19 03:02:05;;;;;;;7.90;6.70;;;;;;;;;;5053051;28;20179;-48
2023/08/19 03:04:31;;;;;;;7.80;6.97;;;;;;;;;;5052810;28;20280;-49
2023/08/19 03:06:58;;;;;;;7.53;6.73;;;;;;;;;;5052908;28;20286;-49
2023/08/19 03:09:24;;;;;;;8.03;6.50;;;;;;;;;;5048696;28;20349;-48
2023/08/19 03:11:49;;;;;;;9.63;7.27;;;;;;;;;;5049394;28;20304;-49
2023/08/19 03:14:15;;;;;;;8.83;6.83;;;;;;;;;;5050897;28;20166;-48
2023/08/19 03:16:41;;;;;;;9.97;6.83;;;;;;;;;;5051080;28;20165;-49
2023/08/19 03:19:08;;;;;;;7.17;6.30;;;;;;;;;;5050106;28;20177;-49
2023/08/19 03:21:34;;;;;;;8.03;6.47;;;;;;;;;;5049164;28;20166;-48
2023/08/19 03:24:37;;;;;;;11.63;7.40;;;;;;;;;;5052671;28;20176;-47
2023/08/19 03:27:04;;;;;;;7.00;6.30;;;;;;;;;;5051725;28;20216;-50
2023/08/19 03:29:30;;;;;;;7.53;6.63;;;;;;;;;;5050942;28;20324;-46
2023/08/19 03:31:59;;;;;;;6.77;6.17;;;;;;;;;;5051730;28;20264;-52
2023/08/19 03:34:25;;;;;;;12.90;7.00;;;;;;;;;;5050000;28;20332;-49
2023/08/19 03:36:51;;;;;;;8.30;6.93;;;;;;;;;;5051727;28;20173;-49
2023/08/19 03:39:17;;;;;;;7.88;6.88;;;;;;;;;;5052819;28;20485;-51
2023/08/19 03:41:44;;;;;;;8.30;6.63;;;;;;;;;;5051162;28;20242;-48
2023/08/19 03:44:10;;;;;;;9.60;6.90;;;;;;;;;;5049731;28;20169;-47
2023/08/19 03:46:35;;;;;;;9.00;7.20;;;;;;;;;;5051884;28;20188;-47
2023/08/19 03:49:02;;;;;;;11.07;7.70;;;;;;;;;;5050280;28;20197;-49
2023/08/19 03:51:30;;;;;;;8.00;6.83;;;;;;;;;;5050443;28;20173;-47
2023/08/19 03:53:56;;;;;;;8.80;7.47;;;;;;;;;;5051436;28;20576;-51
2023/08/19 03:56:22;;;;;;;8.60;7.17;;;;;;;;;;5049135;28;20336;-48
2023/08/19 03:58:48;;;;;;;8.00;7.30;;;;;;;;;;5049262;28;20174;-47
2023/08/19 04:01:14;;;;;;;10.00;7.07;;;;;;;;;;5049128;28;20177;-53
2023/08/19 04:03:40;;;;;;;9.03;6.93;;;;;;;;;;5051297;28;20337;-48
2023/08/19 04:06:06;;;;;;;8.67;7.87;;;;;;;;;;5051280;28;20188;-49
2023/08/19 04:08:33;;;;;;;8.03;7.23;;;;;;;;;;5051357;28;20216;-48
2023/08/19 04:11:05;;;;;;;7.80;7.10;;;;;;;;;;5053138;28;20549;-48
2023/08/19 04:13:32;;;;;;;7.87;6.90;;;;;;;;;;5053051;28;20551;-51
2023/08/19 04:16:09;;;;;;;8.47;7.07;;;;;;;;;;5051588;28;20342;-46
2023/08/19 04:18:35;;;;;;;12.53;8.03;;;;;;;;;;5052041;28;20546;-48
2023/08/19 04:21:09;;;;;;;8.10;7.30;;;;;;;;;;5052368;28;20541;-47
2023/08/19 04:23:35;;;;;;;11.57;7.33;;;;;;;;;;5051075;28;20173;-47
2023/08/19 04:26:03;;;;;;;8.43;6.80;;;;;;;;;;5052526;28;20203;-47
2023/08/19 04:28:29;;;;;;;7.27;6.53;;;;;;;;;;5051023;28;20311;-47
2023/08/19 04:31:08;;;;;;;9.23;7.40;;;;;;;;;;5050146;28;20253;-48
2023/08/19 04:33:35;;;;;;;10.37;6.73;;;;;;;;;;5049893;28;20286;-46
2023/08/19 04:36:04;;;;;;;9.10;6.87;;;;;;;;;;5049919;28;20189;-46
2023/08/19 04:38:31;;;;;;;8.13;7.33;;;;;;;;;;5050635;28;20444;-47
2023/08/19 04:40:59;;;;;;;7.23;6.23;;;;;;;;;;5052678;28;20261;-46
2023/08/19 04:43:27;;;;;;;8.03;7.23;;;;;;;;;;5052903;28;20498;-46
2023/08/19 04:45:54;;;;;;;7.50;6.40;;;;;;;;;;5051292;28;20258;-48
2023/08/19 04:48:20;;;;;;;9.07;7.40;;;;;;;;;;5051488;28;20535;-48
2023/08/19 04:50:46;;;;;;;11.77;7.63;;;;;;;;;;5051565;28;20588;-47
2023/08/19 04:53:13;;;;;;;8.33;6.37;;;;;;;;;;5050392;28;20173;-47
2023/08/19 04:55:39;;;;;;;9.17;7.37;;;;;;;;;;5050113;28;20177;-47
2023/08/19 04:58:06;;;;;;;8.60;6.17;;;;;;;;;;5050784;28;20174;-51
2023/08/19 05:00:32;;;;;;;9.03;7.30;;;;;;;;;;5048862;28;20260;-50
2023/08/19 05:02:58;;;;;;;10.07;7.00;;;;;;;;;;5049942;28;20591;-47
2023/08/19 05:05:25;;;;;;;7.77;6.50;;;;;;;;;;5050388;28;20176;-49
2023/08/19 05:07:51;;;;;;;7.90;6.80;;;;;;;;;;5049719;28;20666;-47
2023/08/19 05:10:18;;;;;;;9.03;6.60;;;;;;;;;;5049255;28;20169;-47
2023/08/19 05:12:44;;;;;;;9.63;7.50;;;;;;;;;;5050092;28;20256;-49
2023/08/19 05:15:12;;;;;;;12.30;7.10;;;;;;;;;;5050811;28;20180;-47
2023/08/19 05:17:38;;;;;;;8.63;7.00;;;;;;;;;;5050239;28;20455;-49
2023/08/19 05:20:04;;;;;;;7.43;6.27;;;;;;;;;;5049839;28;20423;-48
2023/08/19 05:22:30;;;;;;;8.93;6.60;;;;;;;;;;5048034;28;20183;-46
2023/08/19 05:24:57;;;;;;;8.17;7.20;;;;;;;;;;5048326;28;20247;-48
2023/08/19 05:27:23;;;;;;;8.27;6.77;;;;;;;;;;5049854;28;20565;-50
2023/08/19 05:29:50;;;;;;;7.40;6.70;;;;;;;;;;5048731;28;20229;-49
2023/08/19 05:32:16;;;;;;;7.37;6.57;;;;;;;;;;5048752;28;20223;-49
2023/08/19 05:34:42;;;;;;;10.20;6.80;;;;;;;;;;5048287;28;20570;-49
2023/08/19 05:37:08;;;;;;;7.60;6.80;;;;;;;;;;5047981;28;20418;-49
2023/08/19 05:39:36;;;;;;;7.23;6.53;;;;;;;;;;5048024;28;20505;-51
2023/08/19 05:42:02;;;;;;;8.80;6.70;;;;;;;;;;5048483;28;20489;-46
2023/08/19 05:44:28;;;;;;;9.30;6.73;;;;;;;;;;5047481;28;20526;-52
2023/08/19 05:46:54;;;;;;;7.13;5.93;;;;;;;;;;5049082;28;20308;-49
2023/08/19 05:49:21;;;;;;;7.73;6.97;;;;;;;;;;5046482;28;20542;-48
2023/08/19 05:51:47;;;;;;;11.17;6.70;;;;;;;;;;5048059;28;20200;-47
2023/08/19 05:54:14;;;;;;;6.80;6.10;;;;;;;;;;5046673;28;20193;-49
2023/08/19 05:56:40;;;;;;;7.40;5.90;;;;;;;;;;5045913;28;20165;-51
2023/08/19 05:59:07;;;;;;;7.13;6.13;;;;;;;;;;5044291;28;20162;-51
2023/08/19 06:01:34;;;;;;;11.13;6.83;;;;;;;;;;5045405;28;20265;-50
2023/08/19 06:04:00;;;;;;;7.73;6.57;;;;;;;;;;5044988;28;20558;-48
2023/08/19 06:06:27;;;;;;;6.90;6.20;;;;;;;;;;5047059;28;20246;-47
2023/08/19 06:08:53;;;;;;;11.00;7.00;;;;;;;;;;5049934;28;20406;-48
2023/08/19 06:11:19;;;;;;;9.20;6.87;;;;;;;;;;5050067;28;20166;-47
2023/08/19 06:13:45;;;;;;;10.30;6.63;;;;;;;;;;5050171;28;20182;-50
2023/08/19 06:16:12;;;;;;;10.13;6.65;;;;;;;;;;5049109;28;20165;-47
2023/08/19 06:18:39;;;;;;;8.63;7.43;;;;;;;;;;5051241;28;20771;-47
2023/08/19 06:21:06;;;;;;;9.03;6.80;;;;;;;;;;5050111;28;20177;-46
2023/08/19 06:23:32;;;;;;;9.30;7.05;;;;;;;;;;5050536;28;20183;-49
2023/08/19 06:26:00;;;;;;;7.65;6.82;;;;;;;;;;5051403;28;20223;-47
2023/08/19 06:28:26;;;;;;;8.43;6.43;;;;;;;;;;5052142;28;20201;-47
2023/08/19 06:30:52;;;;;;;6.30;5.70;;;;;;;;;;5053210;28;20229;-47
2023/08/19 06:33:19;;;;;;;6.77;6.07;;;;;;;;;;5052913;28;20173;-48
2023/08/19 06:35:49;;;;;;;14.17;6.67;;;;;;;;;;5050997;28;20236;-53
2023/08/19 06:38:27;;;;;;;6.80;6.20;;;;;;;;;;5053401;28;20394;-49
2023/08/19 06:40:56;;;;;;;10.40;7.23;;;;;;;;;;5050091;28;20200;-47
2023/08/19 06:43:25;;;;;;;7.80;7.00;;;;;;;;;;5050167;28;20178;-50
2023/08/19 06:45:52;;;;;;;10.70;6.77;;;;;;;;;;5048353;28;20181;-47
2023/08/19 06:48:19;;;;;;;7.87;7.10;;;;;;;;;;5047215;28;20211;-47
2023/08/19 06:50:46;;;;;;;7.65;6.55;;;;;;;;;;5047061;28;20181;-53
2023/08/19 06:53:12;;;;;;;7.63;6.40;;;;;;;;;;5046771;28;20189;-50
2023/08/19 06:55:46;;;;;;;8.80;6.13;;;;;;;;;;5048592;28;20177;-52
2023/08/19 06:58:17;;;;;;;7.70;6.90;;;;;;;;;;5047518;28;20177;-53
2023/08/19 07:00:44;;;;;;;8.53;6.57;;;;;;;;;;5047339;28;20173;-49
2023/08/19 07:03:12;;;;;;;7.85;7.03;;;;;;;;;;5047117;28;20323;-49
2023/08/19 07:05:38;;;;;;;8.57;6.77;;;;;;;;;;5046607;28;20178;-47
2023/08/19 07:08:09;;;;;;;7.60;6.90;;;;;;;;;;5046386;28;20550;-47
2023/08/19 07:10:36;;;;;;;7.88;6.85;;;;;;;;;;5047899;28;20421;-50
2023/08/19 07:13:03;;;;;;;9.00;6.75;;;;;;;;;;5047885;28;20538;-48
2023/08/19 07:15:29;;;;;;;8.07;7.28;;;;;;;;;;5053223;28;20333;-48
2023/08/19 07:17:58;;;;;;;8.57;7.67;;;;;;;;;;5053480;28;20575;-47
2023/08/19 07:20:24;;;;;;;7.47;6.73;;;;;;;;;;5048314;28;20577;-48
2023/08/19 07:22:52;;;;;;;7.15;6.47;;;;;;;;;;5046905;28;20233;-49
2023/08/19 07:25:19;;;;;;;7.67;6.83;;;;;;;;;;5046891;28;20192;-51
2023/08/19 07:27:46;;;;;;;7.60;6.77;;;;;;;;;;5045451;28;20296;-50
2023/08/19 07:30:12;;;;;;;7.93;7.15;;;;;;;;;;5044768;28;20474;-49
2023/08/19 07:32:38;;;;;;;9.45;7.70;;;;;;;;;;5047141;28;20466;-49
2023/08/19 07:35:05;;;;;;;7.75;6.63;;;;;;;;;;5045922;28;20180;-49
2023/08/19 07:37:31;;;;;;;7.77;6.90;;;;;;;;;;5045700;28;20169;-50
2023/08/19 07:39:57;;;;;;;8.02;7.18;;;;;;;;;;5047260;28;20192;-48
2023/08/19 07:42:23;;;;;;;8.88;6.63;;;;;;;;;;5048257;28;20173;-48
2023/08/19 07:44:49;;;;;;;7.97;6.70;;;;;;;;;;5049018;28;20204;-47
2023/08/19 07:47:15;;;;;;;7.10;6.47;;;;;;;;;;5051466;28;20298;-51
2023/08/19 07:49:41;;;;;;;11.48;7.05;;;;;;;;;;5048123;28;20169;-48
2023/08/19 07:52:07;;;;;;;6.57;6.07;;;;;;;;;;5048409;28;20208;-49
2023/08/19 07:54:34;;;;;;;8.93;6.82;;;;;;;;;;5047609;28;20238;-49
2023/08/19 07:57:00;;;;;;;7.60;6.90;;;;;;;;;;5045174;28;20317;-48
2023/08/19 07:59:26;;;;;;;10.50;7.10;;;;;;;;;;5047262;28;20337;-47
2023/08/19 08:01:54;;;;;;;7.32;6.50;;;;;;;;;;5044604;28;20227;-47
2023/08/19 08:04:21;;;;;;;10.65;6.80;;;;;;;;;;5043206;28;20405;-47
2023/08/19 08:06:50;;;;;;;6.75;6.05;;;;;;;;;;5043980;28;20242;-48
2023/08/19 08:09:16;;;;;;;8.27;7.47;;;;;;;;;;5046057;28;20254;-50
2023/08/19 08:11:42;;;;;;;8.48;7.55;;;;;;;;;;5042565;28;20269;-50
2023/08/19 08:14:08;;;;;;;8.35;7.18;;;;;;;;;;5040006;28;20162;-47
2023/08/19 08:16:34;;;;;;;9.35;7.20;;;;;;;;;;5040377;28;20180;-49
2023/08/19 08:19:01;;;;;;;7.97;7.28;;;;;;;;;;5041658;28;20400;-47
2023/08/19 08:21:29;;;;;;;9.45;6.97;;;;;;;;;;5038162;28;20169;-49
2023/08/19 08:23:55;;;;;;;7.53;6.60;;;;;;;;;;5039159;28;20557;-47
2023/08/19 08:26:22;;;;;;;7.50;6.80;;;;;;;;;;5041544;28;20173;-47
2023/08/19 08:28:48;;;;;;;6.95;6.35;;;;;;;;;;5044958;28;20522;-50
2023/08/19 08:31:16;;;;;;;7.15;6.55;;;;;;;;;;5045210;28;20246;-52
2023/08/19 08:33:42;;;;;;;7.28;6.57;;;;;;;;;;5045504;28;20209;-47
2023/08/19 08:36:08;;;;;;;7.40;6.80;;;;;;;;;;5045660;28;20513;-47
2023/08/19 08:38:34;;;;;;;6.97;6.32;;;;;;;;;;5046044;28;20177;-49
2023/08/19 08:41:04;;;;;;;8.00;7.13;;;;;;;;;;5046344;28;20267;-48
2023/08/19 08:43:32;;;;;;;7.28;6.55;;;;;;;;;;5044535;28;20433;-48
2023/08/19 08:45:59;;;;;;;8.57;7.72;;;;;;;;;;5044360;28;20177;-51
2023/08/19 08:48:27;;;;;;;7.10;6.45;;;;;;;;;;5044687;28;20198;-49
2023/08/19 08:50:55;;;;;;;7.72;6.95;;;;;;;;;;5044684;28;20327;-49
2023/08/19 08:53:22;;;;;;;7.25;6.60;;;;;;;;;;5045406;28;20411;-49
2023/08/19 08:55:49;;;;;;;12.40;7.28;;;;;;;;;;5043578;28;20234;-48
2023/08/19 08:58:15;;;;;;;8.27;6.65;;;;;;;;;;5045283;28;20185;-47
2023/08/19 09:00:41;;;;;;;8.57;6.88;;;;;;;;;;5044477;28;20169;-49
2023/08/19 09:03:08;;;;;;;10.45;7.38;;;;;;;;;;5045834;28;20352;-52
2023/08/19 09:05:36;;;;;;;8.50;7.22;;;;;;;;;;5044610;28;20348;-51
2023/08/19 09:08:04;;;;;;;8.25;7.45;;;;;;;;;;5044840;28;20477;-52
2023/08/19 09:10:32;;;;;;;8.90;6.70;;;;;;;;;;5043705;28;20165;-48
2023/08/19 09:12:58;;;;;;;8.77;7.28;;;;;;;;;;5042012;28;20231;-47
2023/08/19 09:15:28;;;;;;;8.40;7.00;;;;;;;;;;5041272;28;20165;-52
2023/08/19 09:17:56;;;;;;;9.02;7.80;;;;;;;;;;5043140;28;20612;-53
2023/08/19 09:20:22;;;;;;;8.57;6.75;;;;;;;;;;5042072;28;20241;-47
2023/08/19 09:22:49;;;;;;;7.82;7.13;;;;;;;;;;5043094;28;20196;-49
2023/08/19 09:25:15;;;;;;;8.52;7.63;;;;;;;;;;5043772;28;20317;-46
2023/08/19 09:27:42;;;;;;;7.68;6.85;;;;;;;;;;5040995;28;20492;-47
2023/08/19 09:30:08;;;;;;;7.57;6.88;;;;;;;;;;5042084;28;20236;-48
2023/08/19 09:32:35;;;;;;;8.07;7.40;;;;;;;;;;5043736;28;20352;-49
2023/08/19 09:35:11;;;;;;;7.68;6.93;;;;;;;;;;5043113;28;20564;-47
2023/08/19 09:37:38;;;;;;;7.88;7.03;;;;;;;;;;5042908;28;20268;-49
2023/08/19 09:40:11;;;;;;;9.75;7.25;;;;;;;;;;5045501;28;20172;-47
2023/08/19 09:42:38;;;;;;;7.97;7.28;;;;;;;;;;5044569;28;20565;-47
2023/08/19 09:45:05;;;;;;;8.00;7.30;;;;;;;;;;5044154;28;20177;-51
2023/08/19 09:47:31;;;;;;;8.23;7.38;;;;;;;;;;5042797;28;20208;-52
2023/08/19 09:49:59;;;;;;;8.63;7.85;;;;;;;;;;5045301;28;20165;-49
2023/08/19 09:52:25;;;;;;;8.80;7.90;;;;;;;;;;5045203;28;20166;-49
2023/08/19 09:54:54;;;;;;;8.30;7.50;;;;;;;;;;5044367;28;20161;-48
2023/08/19 09:57:33;;;;;;;7.85;7.18;;;;;;;;;;5041832;28;20182;-49
2023/08/19 10:00:00;;;;;;;7.90;6.78;;;;;;;;;;5042747;28;20272;-52
2023/08/19 10:02:27;;;;;;;8.50;7.70;;;;;;;;;;5040090;28;20197;-50
2023/08/19 10:04:53;;;;;;;7.55;6.90;;;;;;;;;;5041348;28;20178;-49
2023/08/19 10:07:22;;;;;;;8.23;7.47;;;;;;;;;;5043688;28;20282;-49
2023/08/19 10:09:49;;;;;;;10.38;8.55;;;;;;;;;;5044594;28;20582;-49
2023/08/19 10:12:16;;;;;;;9.48;8.45;;;;;;;;;;5046034;28;20281;-51
2023/08/19 10:14:46;;;;;;;9.23;8.20;;;;;;;;;;5043192;28;20165;-49
2023/08/19 10:17:12;;;;;;;8.85;8.00;;;;;;;;;;5042950;28;20175;-50
2023/08/19 10:19:50;;;;;;;9.80;8.75;;;;;;;;;;5043172;28;20178;-49
2023/08/19 10:22:18;;;;;;;9.07;8.18;;;;;;;;;;5042378;28;20173;-47
2023/08/19 10:24:45;;;;;;;9.45;8.65;;;;;;;;;;5039973;28;20323;-48
2023/08/19 10:27:19;;;;;;;9.35;8.45;;;;;;;;;;5058554;28;20193;-50
2023/08/19 10:29:48;;;;;;;22.05;9.18;;;;;;;;;;5061022;28;20495;-49
2023/08/19 10:32:33;;;;;;;9.98;9.07;;;;;;;;;;5060882;28;20275;-47
2023/08/19 10:35:09;;;;;;;8.32;7.63;;;;;;;;;;5059221;28;20175;-49
2023/08/19 10:37:36;;;;;;;9.75;8.85;;;;;;;;;;5059091;28;20361;-47
2023/08/19 10:40:08;;;;;;;9.70;8.90;;;;;;;;;;5060301;28;20177;-49
2023/08/19 10:42:35;;;;;;;9.10;8.30;;;;;;;;;;5060070;28;20171;-49
2023/08/19 10:45:01;;;;;;;9.23;8.43;;;;;;;;;;5061678;28;20241;-49
2023/08/19 10:47:27;;;;;;;9.90;7.90;;;;;;;;;;5059835;28;20228;-48
2023/08/19 10:50:01;;;;;;;11.07;9.02;;;;;;;;;;5057575;28;20330;-47
2023/08/19 10:52:28;;;;;;;11.40;8.85;;;;;;;;;;5056690;28;20188;-50
2023/08/19 10:54:56;;;;;;;9.90;8.90;;;;;;;;;;5060276;28;20157;-47
2023/08/19 10:57:27;;;;;;;9.65;8.75;;;;;;;;;;5058662;28;20297;-48
2023/08/19 11:00:05;;;;;;;9.98;8.75;;;;;;;;;;5058253;28;20367;-48
2023/08/19 11:02:32;;;;;;;9.20;8.40;;;;;;;;;;5060924;28;20176;-52
2023/08/19 11:04:58;;;;;;;8.98;8.18;;;;;;;;;;5061544;28;20353;-49
2023/08/19 11:07:25;;;;;;;9.30;8.15;;;;;;;;;;5062033;28;20204;-50
2023/08/19 11:09:54;;;;;;;8.88;8.05;;;;;;;;;;5064338;28;20161;-49
2023/08/19 11:12:29;;;;;;;10.10;9.10;;;;;;;;;;5065649;28;20417;-48
2023/08/19 11:14:55;;;;;;;9.15;8.15;;;;;;;;;;5064693;28;20681;-47
2023/08/19 11:17:32;;;;;;;9.48;8.57;;;;;;;;;;5065055;28;20169;-48
2023/08/19 11:19:58;;;;;;;10.90;8.75;;;;;;;;;;5065587;28;20268;-48
2023/08/19 11:22:25;;;;;;;9.73;8.73;;;;;;;;;;5066890;28;20564;-47
2023/08/19 11:24:51;;;;;;;10.05;9.00;;;;;;;;;;5064386;28;20504;-47
2023/08/19 11:27:18;;;;;;;9.82;8.82;;;;;;;;;;5060884;28;20566;-47
2023/08/19 11:29:47;;;;;;;9.65;8.02;;;;;;;;;;5062341;28;20236;-47
2023/08/19 11:32:20;;;;;;;10.52;8.88;;;;;;;;;;5062656;28;20445;-49
2023/08/19 11:34:46;;;;;;;9.43;8.60;;;;;;;;;;5063952;28;20235;-49
2023/08/19 11:37:12;;;;;;;10.10;9.10;;;;;;;;;;5065055;28;20171;-47
2023/08/19 11:39:38;;;;;;;10.55;8.05;;;;;;;;;;5061993;28;20574;-49
2023/08/19 11:42:05;;;;;;;9.00;8.20;;;;;;;;;;5062135;28;20276;-48
2023/08/19 11:44:31;;;;;;;9.68;8.48;;;;;;;;;;5059922;28;20368;-53
2023/08/19 11:46:58;;;;;;;10.02;9.00;;;;;;;;;;5059195;28;20176;-53
2023/08/19 11:49:28;;;;;;;9.98;8.45;;;;;;;;;;5061588;28;20211;-52
2023/08/19 11:51:54;;;;;;;9.60;8.70;;;;;;;;;;5060909;28;20626;-49
2023/08/19 11:54:23;;;;;;;9.20;8.15;;;;;;;;;;5060209;28;20391;-49
2023/08/19 11:56:51;;;;;;;12.50;8.57;;;;;;;;;;5062328;28;20173;-54
2023/08/19 11:59:18;;;;;;;8.95;7.97;;;;;;;;;;5063638;28;20191;-51
2023/08/19 12:01:47;;;;;;;9.05;8.25;;;;;;;;;;5065019;28;20241;-52
2023/08/19 12:04:18;;;;;;;8.38;7.68;;;;;;;;;;5062664;28;20180;-48
2023/08/19 12:06:45;;;;;;;8.65;7.95;;;;;;;;;;5062224;28;20504;-51
2023/08/19 12:09:11;;;;;;;9.20;8.30;;;;;;;;;;5063458;28;20224;-47
2023/08/19 12:11:37;;;;;;;9.38;8.48;;;;;;;;;;5061573;28;20208;-50
2023/08/19 12:14:04;;;;;;;9.80;8.40;;;;;;;;;;5060621;28;20195;-48
2023/08/19 12:16:31;;;;;;;11.90;9.65;;;;;;;;;;5056087;28;20173;-52
2023/08/19 12:18:57;;;;;;;8.93;8.13;;;;;;;;;;5055760;28;20175;-49
2023/08/19 12:21:24;;;;;;;9.23;8.32;;;;;;;;;;5056937;28;20240;-48
2023/08/19 12:23:50;;;;;;;9.82;8.70;;;;;;;;;;5058317;28;20176;-48
2023/08/19 12:26:16;;;;;;;9.85;8.95;;;;;;;;;;5057166;28;20172;-49
2023/08/19 12:28:43;;;;;;;10.32;9.43;;;;;;;;;;5057035;28;20247;-50
2023/08/19 12:31:10;;;;;;;9.60;8.63;;;;;;;;;;5060468;28;20468;-49
2023/08/19 12:33:38;;;;;;;9.73;8.68;;;;;;;;;;5060195;28;20371;-47
2023/08/19 12:36:05;;;;;;;9.35;8.25;;;;;;;;;;5058096;28;20176;-52
2023/08/19 12:38:31;;;;;;;9.70;8.55;;;;;;;;;;5058006;28;20180;-51
2023/08/19 12:40:57;;;;;;;10.23;9.20;;;;;;;;;;5060207;28;20161;-51
2023/08/19 12:43:23;;;;;;;9.73;8.88;;;;;;;;;;5061601;28;20469;-49
2023/08/19 12:45:49;;;;;;;10.07;9.18;;;;;;;;;;5060955;28;20179;-52
2023/08/19 12:48:15;;;;;;;10.40;8.95;;;;;;;;;;5062087;28;20212;-52
2023/08/19 12:50:41;;;;;;;9.20;8.25;;;;;;;;;;5061010;28;20653;-50
2023/08/19 12:53:08;;;;;;;11.02;8.55;;;;;;;;;;5060907;28;20437;-49
2023/08/19 12:55:34;;;;;;;8.80;8.05;;;;;;;;;;5062657;28;20195;-50
2023/08/19 12:58:00;;;;;;;11.45;9.93;;;;;;;;;;5062151;28;20295;-51
2023/08/19 13:00:27;;;;;;;10.07;8.77;;;;;;;;;;5061650;28;20796;-50
2023/08/19 13:02:54;;;;;;;9.15;8.10;;;;;;;;;;5062188;28;20243;-48
2023/08/19 13:05:21;;;;;;;9.48;8.02;;;;;;;;;;5059820;28;20271;-48
2023/08/19 13:07:47;;;;;;;8.88;8.05;;;;;;;;;;5061416;28;20572;-51
2023/08/19 13:10:14;;;;;;;9.25;8.38;;;;;;;;;;5063014;28;20249;-50
2023/08/19 13:12:41;;;;;;;8.82;7.72;;;;;;;;;;5061355;28;20259;-53
2023/08/19 13:15:08;;;;;;;8.18;7.43;;;;;;;;;;5060299;28;20192;-50
2023/08/19 13:17:35;;;;;;;9.27;8.02;;;;;;;;;;5059890;28;20186;-47
2023/08/19 13:20:02;;;;;;;8.77;7.93;;;;;;;;;;5060655;28;20164;-47
2023/08/19 13:22:28;;;;;;;9.38;7.10;;;;;;;;;;5060207;28;20176;-50
2023/08/19 13:24:54;;;;;;;8.52;7.82;;;;;;;;;;5061414;28;20168;-48
2023/08/19 13:27:21;;;;;;;7.78;7.00;;;;;;;;;;5059766;28;20220;-49
2023/08/19 13:29:47;;;;;;;11.38;7.78;;;;;;;;;;5058607;28;20233;-47
2023/08/19 13:32:14;;;;;;;7.85;7.15;;;;;;;;;;5057656;28;20224;-47
2023/08/19 13:34:41;;;;;;;8.27;7.10;;;;;;;;;;5059408;28;20324;-47
2023/08/19 13:37:06;;;;;;;8.45;7.65;;;;;;;;;;5060384;28;20449;-48
2023/08/19 13:39:35;;;;;;;7.20;6.60;;;;;;;;;;5060621;28;20545;-49
2023/08/19 13:42:01;;;;;;;9.55;7.53;;;;;;;;;;5060347;28;20164;-50
2023/08/19 13:44:27;;;;;;;7.72;7.00;;;;;;;;;;5059695;28;20868;-50
2023/08/19 13:46:54;;;;;;;8.50;7.70;;;;;;;;;;5059120;28;20271;-48
2023/08/19 13:49:20;;;;;;;8.82;8.00;;;;;;;;;;5059282;28;20204;-49
2023/08/19 13:51:47;;;;;;;8.68;7.80;;;;;;;;;;5060597;28;20172;-51
2023/08/19 13:54:17;;;;;;;8.60;7.70;;;;;;;;;;5062340;28;20171;-48
2023/08/19 13:56:47;;;;;;;8.10;7.45;;;;;;;;;;5062011;28;20169;-47
2023/08/19 13:59:13;;;;;;;8.40;7.63;;;;;;;;;;5060885;28;20271;-49
2023/08/19 14:01:39;;;;;;;8.88;8.07;;;;;;;;;;5063879;28;20255;-47
2023/08/19 14:04:05;;;;;;;9.07;8.27;;;;;;;;;;5062244;28;20176;-47
2023/08/19 14:06:31;;;;;;;7.75;7.05;;;;;;;;;;5060058;28;20207;-49
2023/08/19 14:08:57;;;;;;;9.52;8.63;;;;;;;;;;5060674;28;20597;-50
2023/08/19 14:11:24;;;;;;;10.80;8.20;;;;;;;;;;5061007;28;20175;-49
2023/08/19 14:13:51;;;;;;;9.07;8.23;;;;;;;;;;5060499;28;20499;-51
2023/08/19 14:16:17;;;;;;;10.20;8.18;;;;;;;;;;5060925;28;20552;-49
2023/08/19 14:18:43;;;;;;;13.38;8.60;;;;;;;;;;5059900;28;20191;-49
2023/08/19 14:21:09;;;;;;;9.10;8.10;;;;;;;;;;5060712;28;20256;-48
2023/08/19 14:23:36;;;;;;;8.63;7.82;;;;;;;;;;5059395;28;20287;-50
2023/08/19 14:26:03;;;;;;;9.27;8.48;;;;;;;;;;5060229;28;20207;-52
2023/08/19 14:28:29;;;;;;;7.70;7.05;;;;;;;;;;5062068;28;20736;-48
2023/08/19 14:30:55;;;;;;;8.82;8.02;;;;;;;;;;5064264;28;20256;-50
2023/08/19 14:33:21;;;;;;;9.65;8.02;;;;;;;;;;5063808;28;20510;-49
2023/08/19 14:35:47;;;;;;;9.18;8.38;;;;;;;;;;5064275;28;20173;-49
2023/08/19 14:38:13;;;;;;;10.00;9.00;;;;;;;;;;5063583;28;20295;-49
2023/08/19 14:40:40;;;;;;;10.32;9.32;;;;;;;;;;5062163;28;20424;-51